sensor_id;sensor_type;location;lat;lon;timestamp;pressure;altitude;pressure_sealevel;temperature;humidity
24858;BME280;12935;50.782;6.074;2023-03-03T00:00:50;100050.31;;;1.58;100.00
24858;BME280;12935;50.782;6.074;2023-03-03T00:03:21;100042.88;;;1.64;100.00
24858;BME280;12935;50.782;6.074;2023-03-03T00:05:47;100038.06;;;1.78;100.00
24858;BME280;12935;50.782;6.074;2023-03-03T00:08:14;100052.69;;;1.60;100.00
24858;BME280;12935;50.782;6.074;2023-03-03T00:10:39;100045.41;;;1.69;100.00
24858;BME280;12935;50.782;6.074;2023-03-03T00:13:15;100052.03;;;1.80;100.00
24858;BME280;12935;50.782;6.074;2023-03-03T00:15:41;100053.31;;;1.65;100.00
24858;BME280;12935;50.782;6.074;2023-03-03T00:18:20;100067.94;;;1.56;100.00
24858;BME280;12935;50.782;6.074;2023-03-03T00:20:54;100064.88;;;1.66;100.00
24858;BME280;12935;50.782;6.074;2023-03-03T00:25:57;100071.41;;;1.56;100.00
24858;BME280;12935;50.782;6.074;2023-03-03T00:30:53;100078.06;;;1.50;100.00
24858;BME280;12935;50.782;6.074;2023-03-03T00:35:56;100076.13;;;1.59;100.00
24858;BME280;12935;50.782;6.074;2023-03-03T00:38:22;100072.84;;;1.54;100.00
24858;BME280;12935;50.782;6.074;2023-03-03T00:40:48;100070.63;;;1.56;100.00
24858;BME280;12935;50.782;6.074;2023-03-03T00:48:29;100076.00;;;1.47;100.00
24858;BME280;12935;50.782;6.074;2023-03-03T00:50:57;100068.25;;;1.37;100.00
24858;BME280;12935;50.782;6.074;2023-03-03T00:53:28;100077.13;;;1.37;100.00
24858;BME280;12935;50.782;6.074;2023-03-03T00:55:54;100073.94;;;1.53;100.00
24858;BME280;12935;50.782;6.074;2023-03-03T00:58:20;100073.00;;;1.40;100.00
24858;BME280;12935;50.782;6.074;2023-03-03T01:00:51;100071.56;;;1.42;100.00
24858;BME280;12935;50.782;6.074;2023-03-03T01:03:20;100067.13;;;1.47;100.00
24858;BME280;12935;50.782;6.074;2023-03-03T01:05:47;100071.75;;;1.37;100.00
24858;BME280;12935;50.782;6.074;2023-03-03T01:08:13;100059.09;;;1.03;100.00
24858;BME280;12935;50.782;6.074;2023-03-03T01:10:50;100081.56;;;1.08;100.00
24858;BME280;12935;50.782;6.074;2023-03-03T01:13:18;100080.28;;;1.05;100.00
24858;BME280;12935;50.782;6.074;2023-03-03T01:15:44;100077.91;;;0.95;100.00
24858;BME280;12935;50.782;6.074;2023-03-03T01:18:11;100080.13;;;1.01;100.00
24858;BME280;12935;50.782;6.074;2023-03-03T01:20:37;100081.38;;;0.95;100.00
24858;BME280;12935;50.782;6.074;2023-03-03T01:23:03;100083.28;;;0.86;100.00
24858;BME280;12935;50.782;6.074;2023-03-03T01:25:29;100081.84;;;0.89;100.00
24858;BME280;12935;50.782;6.074;2023-03-03T01:27:55;100079.00;;;0.77;100.00
24858;BME280;12935;50.782;6.074;2023-03-03T01:30:22;100078.47;;;0.66;100.00
24858;BME280;12935;50.782;6.074;2023-03-03T01:32:47;100078.47;;;0.66;100.00
24858;BME280;12935;50.782;6.074;2023-03-03T01:35:13;100074.81;;;0.53;100.00
24858;BME280;12935;50.782;6.074;2023-03-03T01:37:39;100073.72;;;0.54;100.00
24858;BME280;12935;50.782;6.074;2023-03-03T01:40:06;100075.03;;;0.74;100.00
24858;BME280;12935;50.782;6.074;2023-03-03T01:42:32;100080.59;;;0.86;100.00
24858;BME280;12935;50.782;6.074;2023-03-03T01:47:54;100086.75;;;0.78;100.00
24858;BME280;12935;50.782;6.074;2023-03-03T01:52:53;100086.63;;;1.00;100.00
24858;BME280;12935;50.782;6.074;2023-03-03T01:55:22;100073.78;;;1.15;100.00
24858;BME280;12935;50.782;6.074;2023-03-03T01:57:56;100084.91;;;1.22;100.00
24858;BME280;12935;50.782;6.074;2023-03-03T02:00:25;100086.16;;;1.07;100.00
24858;BME280;12935;50.782;6.074;2023-03-03T02:02:52;100092.63;;;1.15;100.00
24858;BME280;12935;50.782;6.074;2023-03-03T02:05:18;100083.47;;;1.16;100.00
24858;BME280;12935;50.782;6.074;2023-03-03T02:07:44;100088.84;;;1.33;100.00
24858;BME280;12935;50.782;6.074;2023-03-03T02:10:15;100097.41;;;1.18;100.00
24858;BME280;12935;50.782;6.074;2023-03-03T02:12:48;100099.13;;;1.05;100.00
24858;BME280;12935;50.782;6.074;2023-03-03T02:17:43;100085.66;;;0.88;100.00
24858;BME280;12935;50.782;6.074;2023-03-03T02:20:19;100083.06;;;0.65;100.00
24858;BME280;12935;50.782;6.074;2023-03-03T02:22:53;100078.78;;;0.47;100.00
24858;BME280;12935;50.782;6.074;2023-03-03T02:25:47;100101.81;;;0.31;100.00
24858;BME280;12935;50.782;6.074;2023-03-03T02:28:09;100096.56;;;0.26;100.00
24858;BME280;12935;50.782;6.074;2023-03-03T02:30:38;100096.50;;;0.65;100.00
24858;BME280;12935;50.782;6.074;2023-03-03T02:33:03;100098.06;;;0.49;100.00
24858;BME280;12935;50.782;6.074;2023-03-03T02:35:35;100095.09;;;0.59;100.00
24858;BME280;12935;50.782;6.074;2023-03-03T02:38:21;100088.78;;;0.73;100.00
24858;BME280;12935;50.782;6.074;2023-03-03T02:41:20;100107.91;;;0.62;100.00
24858;BME280;12935;50.782;6.074;2023-03-03T02:43:54;100111.41;;;0.72;100.00
24858;BME280;12935;50.782;6.074;2023-03-03T02:46:21;100108.97;;;0.53;100.00
24858;BME280;12935;50.782;6.074;2023-03-03T02:48:47;100112.41;;;0.36;100.00
24858;BME280;12935;50.782;6.074;2023-03-03T02:51:12;100110.31;;;0.24;100.00
24858;BME280;12935;50.782;6.074;2023-03-03T02:53:37;100105.28;;;0.31;100.00
24858;BME280;12935;50.782;6.074;2023-03-03T02:56:03;100113.88;;;0.51;100.00
24858;BME280;12935;50.782;6.074;2023-03-03T02:58:29;100113.53;;;0.44;100.00
24858;BME280;12935;50.782;6.074;2023-03-03T03:00:54;100112.97;;;0.16;100.00
24858;BME280;12935;50.782;6.074;2023-03-03T03:03:20;100118.75;;;0.40;100.00
24858;BME280;12935;50.782;6.074;2023-03-03T03:05:45;100110.91;;;0.21;100.00
24858;BME280;12935;50.782;6.074;2023-03-03T03:08:10;100112.59;;;0.09;100.00
24858;BME280;12935;50.782;6.074;2023-03-03T03:10:36;100116.97;;;0.27;100.00
24858;BME280;12935;50.782;6.074;2023-03-03T03:13:02;100111.97;;;0.51;100.00
24858;BME280;12935;50.782;6.074;2023-03-03T03:15:27;100124.47;;;0.47;100.00
24858;BME280;12935;50.782;6.074;2023-03-03T03:17:53;100125.59;;;0.55;100.00
24858;BME280;12935;50.782;6.074;2023-03-03T03:20:18;100115.56;;;0.78;100.00
24858;BME280;12935;50.782;6.074;2023-03-03T03:22:43;100120.16;;;0.86;100.00
24858;BME280;12935;50.782;6.074;2023-03-03T03:25:09;100122.41;;;0.44;100.00
24858;BME280;12935;50.782;6.074;2023-03-03T03:27:34;100128.44;;;0.19;100.00
24858;BME280;12935;50.782;6.074;2023-03-03T03:29:59;100129.84;;;0.16;100.00
24858;BME280;12935;50.782;6.074;2023-03-03T03:32:25;100123.66;;;0.07;100.00
24858;BME280;12935;50.782;6.074;2023-03-03T03:34:50;100119.97;;;0.03;100.00
24858;BME280;12935;50.782;6.074;2023-03-03T03:37:15;100120.38;;;0.19;100.00
24858;BME280;12935;50.782;6.074;2023-03-03T03:39:40;100115.56;;;0.29;100.00
24858;BME280;12935;50.782;6.074;2023-03-03T03:42:06;100127.78;;;0.44;100.00
24858;BME280;12935;50.782;6.074;2023-03-03T03:44:31;100119.47;;;0.72;100.00
24858;BME280;12935;50.782;6.074;2023-03-03T03:46:56;100123.50;;;0.91;100.00
24858;BME280;12935;50.782;6.074;2023-03-03T03:49:22;100114.16;;;0.97;100.00
24858;BME280;12935;50.782;6.074;2023-03-03T03:51:47;100126.34;;;1.12;100.00
24858;BME280;12935;50.782;6.074;2023-03-03T03:54:12;100129.38;;;1.19;100.00
24858;BME280;12935;50.782;6.074;2023-03-03T03:56:37;100133.81;;;1.15;100.00
24858;BME280;12935;50.782;6.074;2023-03-03T03:59:05;100124.31;;;1.09;100.00
24858;BME280;12935;50.782;6.074;2023-03-03T04:01:31;100128.25;;;1.12;100.00
24858;BME280;12935;50.782;6.074;2023-03-03T04:03:57;100133.19;;;1.18;100.00
24858;BME280;12935;50.782;6.074;2023-03-03T04:06:22;100136.97;;;1.09;100.00
24858;BME280;12935;50.782;6.074;2023-03-03T04:08:48;100140.28;;;1.14;100.00
24858;BME280;12935;50.782;6.074;2023-03-03T04:11:14;100138.06;;;1.16;100.00
24858;BME280;12935;50.782;6.074;2023-03-03T04:13:40;100135.06;;;1.18;100.00
24858;BME280;12935;50.782;6.074;2023-03-03T04:16:06;100139.03;;;1.20;100.00
24858;BME280;12935;50.782;6.074;2023-03-03T04:18:31;100136.19;;;1.17;100.00
24858;BME280;12935;50.782;6.074;2023-03-03T04:20:57;100135.84;;;0.92;100.00
24858;BME280;12935;50.782;6.074;2023-03-03T04:23:23;100137.59;;;1.05;100.00
24858;BME280;12935;50.782;6.074;2023-03-03T04:25:49;100145.97;;;1.13;100.00
24858;BME280;12935;50.782;6.074;2023-03-03T04:28:15;100137.63;;;1.23;100.00
24858;BME280;12935;50.782;6.074;2023-03-03T04:30:41;100135.53;;;1.28;100.00
24858;BME280;12935;50.782;6.074;2023-03-03T04:33:07;100139.06;;;1.37;100.00
24858;BME280;12935;50.782;6.074;2023-03-03T04:35:33;100149.19;;;1.23;100.00
24858;BME280;12935;50.782;6.074;2023-03-03T04:37:58;100144.41;;;1.29;100.00
24858;BME280;12935;50.782;6.074;2023-03-03T04:40:24;100150.88;;;1.11;100.00
24858;BME280;12935;50.782;6.074;2023-03-03T04:42:49;100149.53;;;0.74;100.00
24858;BME280;12935;50.782;6.074;2023-03-03T04:45:14;100135.78;;;0.35;100.00
24858;BME280;12935;50.782;6.074;2023-03-03T04:47:40;100144.25;;;0.51;100.00
24858;BME280;12935;50.782;6.074;2023-03-03T04:50:06;100138.00;;;0.82;100.00
24858;BME280;12935;50.782;6.074;2023-03-03T04:52:32;100141.53;;;0.99;100.00
24858;BME280;12935;50.782;6.074;2023-03-03T04:54:57;100143.16;;;1.09;100.00
24858;BME280;12935;50.782;6.074;2023-03-03T04:57:23;100148.97;;;0.94;100.00
24858;BME280;12935;50.782;6.074;2023-03-03T04:59:48;100153.41;;;0.98;100.00
24858;BME280;12935;50.782;6.074;2023-03-03T05:02:13;100151.84;;;1.15;100.00
24858;BME280;12935;50.782;6.074;2023-03-03T05:04:39;100157.88;;;1.20;100.00
24858;BME280;12935;50.782;6.074;2023-03-03T05:07:05;100161.19;;;1.17;100.00
24858;BME280;12935;50.782;6.074;2023-03-03T05:09:31;100160.97;;;0.96;100.00
24858;BME280;12935;50.782;6.074;2023-03-03T05:11:56;100164.03;;;1.03;100.00
24858;BME280;12935;50.782;6.074;2023-03-03T05:14:22;100149.31;;;1.18;100.00
24858;BME280;12935;50.782;6.074;2023-03-03T05:16:47;100164.53;;;1.31;100.00
24858;BME280;12935;50.782;6.074;2023-03-03T05:19:13;100168.81;;;1.32;100.00
24858;BME280;12935;50.782;6.074;2023-03-03T05:21:38;100165.81;;;1.25;100.00
24858;BME280;12935;50.782;6.074;2023-03-03T05:24:10;100168.56;;;0.86;100.00
24858;BME280;12935;50.782;6.074;2023-03-03T05:26:36;100177.47;;;1.03;100.00
24858;BME280;12935;50.782;6.074;2023-03-03T05:29:02;100166.19;;;0.84;100.00
24858;BME280;12935;50.782;6.074;2023-03-03T05:31:28;100173.63;;;0.48;100.00
24858;BME280;12935;50.782;6.074;2023-03-03T05:33:53;100168.97;;;0.62;100.00
24858;BME280;12935;50.782;6.074;2023-03-03T05:36:18;100170.13;;;0.78;100.00
24858;BME280;12935;50.782;6.074;2023-03-03T05:38:44;100175.28;;;0.57;100.00
24858;BME280;12935;50.782;6.074;2023-03-03T05:41:10;100181.69;;;0.48;100.00
24858;BME280;12935;50.782;6.074;2023-03-03T05:43:35;100174.75;;;0.47;100.00
24858;BME280;12935;50.782;6.074;2023-03-03T05:46:01;100173.63;;;0.48;100.00
24858;BME280;12935;50.782;6.074;2023-03-03T05:48:27;100174.59;;;0.52;100.00
24858;BME280;12935;50.782;6.074;2023-03-03T05:50:53;100172.03;;;0.38;100.00
24858;BME280;12935;50.782;6.074;2023-03-03T05:53:18;100180.16;;;0.24;100.00
24858;BME280;12935;50.782;6.074;2023-03-03T05:55:44;100184.22;;;0.13;100.00
24858;BME280;12935;50.782;6.074;2023-03-03T05:58:10;100184.38;;;0.17;100.00
24858;BME280;12935;50.782;6.074;2023-03-03T06:00:36;100184.47;;;0.34;100.00
24858;BME280;12935;50.782;6.074;2023-03-03T06:03:02;100195.69;;;0.05;100.00
24858;BME280;12935;50.782;6.074;2023-03-03T06:05:28;100183.56;;;0.08;100.00
24858;BME280;12935;50.782;6.074;2023-03-03T06:07:54;100194.66;;;0.15;100.00
24858;BME280;12935;50.782;6.074;2023-03-03T06:10:20;100186.34;;;0.03;100.00
24858;BME280;12935;50.782;6.074;2023-03-03T06:12:45;100179.09;;;0.03;100.00
24858;BME280;12935;50.782;6.074;2023-03-03T06:15:10;100174.75;;;0.16;100.00
24858;BME280;12935;50.782;6.074;2023-03-03T06:17:36;100186.78;;;0.49;100.00
24858;BME280;12935;50.782;6.074;2023-03-03T06:20:01;100174.19;;;0.67;100.00
24858;BME280;12935;50.782;6.074;2023-03-03T06:22:28;100189.03;;;0.64;100.00
24858;BME280;12935;50.782;6.074;2023-03-03T06:24:54;100181.41;;;0.18;100.00
24858;BME280;12935;50.782;6.074;2023-03-03T06:27:19;100195.03;;;-0.01;100.00
24858;BME280;12935;50.782;6.074;2023-03-03T06:29:44;100205.47;;;0.23;100.00
24858;BME280;12935;50.782;6.074;2023-03-03T06:32:10;100204.38;;;0.55;100.00
24858;BME280;12935;50.782;6.074;2023-03-03T06:34:36;100203.06;;;0.44;100.00
24858;BME280;12935;50.782;6.074;2023-03-03T06:37:01;100197.88;;;0.56;100.00
24858;BME280;12935;50.782;6.074;2023-03-03T06:39:26;100204.50;;;0.50;100.00
24858;BME280;12935;50.782;6.074;2023-03-03T06:41:52;100199.19;;;0.67;100.00
24858;BME280;12935;50.782;6.074;2023-03-03T06:44:17;100205.75;;;0.84;100.00
24858;BME280;12935;50.782;6.074;2023-03-03T06:46:42;100211.00;;;0.97;100.00
24858;BME280;12935;50.782;6.074;2023-03-03T06:49:08;100215.09;;;0.95;100.00
24858;BME280;12935;50.782;6.074;2023-03-03T06:51:35;100203.75;;;1.07;100.00
24858;BME280;12935;50.782;6.074;2023-03-03T06:54:13;100216.91;;;1.17;100.00
24858;BME280;12935;50.782;6.074;2023-03-03T06:56:39;100218.69;;;0.73;100.00
24858;BME280;12935;50.782;6.074;2023-03-03T06:59:10;100217.53;;;0.65;100.00
24858;BME280;12935;50.782;6.074;2023-03-03T07:01:36;100225.22;;;0.89;100.00
24858;BME280;12935;50.782;6.074;2023-03-03T07:04:24;100225.16;;;0.72;100.00
24858;BME280;12935;50.782;6.074;2023-03-03T07:06:56;100228.81;;;0.14;100.00
24858;BME280;12935;50.782;6.074;2023-03-03T07:09:25;100233.25;;;-0.04;100.00
24858;BME280;12935;50.782;6.074;2023-03-03T07:11:51;100228.50;;;0.16;100.00
24858;BME280;12935;50.782;6.074;2023-03-03T07:14:18;100232.44;;;0.18;100.00
24858;BME280;12935;50.782;6.074;2023-03-03T07:16:44;100238.06;;;0.08;100.00
24858;BME280;12935;50.782;6.074;2023-03-03T07:19:25;100246.19;;;-0.06;100.00
24858;BME280;12935;50.782;6.074;2023-03-03T07:21:52;100247.34;;;0.02;100.00
24858;BME280;12935;50.782;6.074;2023-03-03T07:24:25;100262.66;;;0.02;100.00
24858;BME280;12935;50.782;6.074;2023-03-03T07:26:54;100254.38;;;-0.11;100.00
24858;BME280;12935;50.782;6.074;2023-03-03T07:29:23;100257.00;;;0.03;100.00
24858;BME280;12935;50.782;6.074;2023-03-03T07:31:51;100271.47;;;-0.07;100.00
24858;BME280;12935;50.782;6.074;2023-03-03T07:34:29;100269.03;;;-0.17;100.00
24858;BME280;12935;50.782;6.074;2023-03-03T07:36:57;100275.75;;;-0.06;100.00
24858;BME280;12935;50.782;6.074;2023-03-03T07:39:37;100282.41;;;0.19;100.00
24858;BME280;12935;50.782;6.074;2023-03-03T07:44:40;100281.13;;;0.39;100.00
24858;BME280;12935;50.782;6.074;2023-03-03T07:47:19;100291.47;;;0.23;100.00
24858;BME280;12935;50.782;6.074;2023-03-03T07:49:50;100302.81;;;0.20;100.00
24858;BME280;12935;50.782;6.074;2023-03-03T07:53:10;100301.66;;;0.13;100.00
24858;BME280;12935;50.782;6.074;2023-03-03T07:55:34;100309.22;;;0.11;100.00
24858;BME280;12935;50.782;6.074;2023-03-03T08:03:16;100305.34;;;0.70;100.00
24858;BME280;12935;50.782;6.074;2023-03-03T08:05:46;100314.50;;;0.91;100.00
24858;BME280;12935;50.782;6.074;2023-03-03T08:08:21;100303.50;;;1.10;100.00
24858;BME280;12935;50.782;6.074;2023-03-03T08:10:54;100309.91;;;1.23;100.00
24858;BME280;12935;50.782;6.074;2023-03-03T08:13:22;100313.72;;;1.30;100.00
24858;BME280;12935;50.782;6.074;2023-03-03T08:15:54;100317.53;;;1.38;100.00
24858;BME280;12935;50.782;6.074;2023-03-03T08:19:08;100325.47;;;1.43;100.00
24858;BME280;12935;50.782;6.074;2023-03-03T08:21:15;100313.44;;;1.49;100.00
24858;BME280;12935;50.782;6.074;2023-03-03T08:23:41;100316.44;;;0.99;100.00
24858;BME280;12935;50.782;6.074;2023-03-03T08:26:07;100320.78;;;0.56;100.00
24858;BME280;12935;50.782;6.074;2023-03-03T08:28:34;100327.94;;;0.38;100.00
24858;BME280;12935;50.782;6.074;2023-03-03T08:30:59;100322.44;;;0.43;100.00
24858;BME280;12935;50.782;6.074;2023-03-03T08:33:24;100314.84;;;0.67;100.00
24858;BME280;12935;50.782;6.074;2023-03-03T08:35:50;100317.03;;;0.65;100.00
24858;BME280;12935;50.782;6.074;2023-03-03T08:38:18;100324.59;;;0.63;100.00
24858;BME280;12935;50.782;6.074;2023-03-03T08:40:43;100327.75;;;0.57;100.00
24858;BME280;12935;50.782;6.074;2023-03-03T08:43:09;100326.66;;;0.58;100.00
24858;BME280;12935;50.782;6.074;2023-03-03T08:45:35;100332.69;;;0.63;100.00
24858;BME280;12935;50.782;6.074;2023-03-03T08:48:01;100337.81;;;0.51;100.00
24858;BME280;12935;50.782;6.074;2023-03-03T08:50:27;100334.63;;;0.49;100.00
24858;BME280;12935;50.782;6.074;2023-03-03T08:52:54;100332.97;;;0.84;100.00
24858;BME280;12935;50.782;6.074;2023-03-03T08:55:19;100347.84;;;1.13;100.00
24858;BME280;12935;50.782;6.074;2023-03-03T08:57:45;100345.53;;;1.28;100.00
24858;BME280;12935;50.782;6.074;2023-03-03T09:00:15;100347.00;;;1.43;100.00
24858;BME280;12935;50.782;6.074;2023-03-03T09:02:41;100339.25;;;1.42;100.00
24858;BME280;12935;50.782;6.074;2023-03-03T09:05:06;100339.16;;;1.55;100.00
24858;BME280;12935;50.782;6.074;2023-03-03T09:07:32;100350.06;;;1.50;100.00
24858;BME280;12935;50.782;6.074;2023-03-03T09:09:58;100359.09;;;1.54;100.00
24858;BME280;12935;50.782;6.074;2023-03-03T09:12:29;100364.84;;;1.70;100.00
24858;BME280;12935;50.782;6.074;2023-03-03T09:14:59;100360.66;;;1.47;100.00
24858;BME280;12935;50.782;6.074;2023-03-03T09:17:34;100368.16;;;1.27;100.00
24858;BME280;12935;50.782;6.074;2023-03-03T09:20:38;100366.19;;;1.11;100.00
24858;BME280;12935;50.782;6.074;2023-03-03T09:23:27;100377.09;;;0.83;100.00
24858;BME280;12935;50.782;6.074;2023-03-03T09:25:55;100379.16;;;0.78;100.00
24858;BME280;12935;50.782;6.074;2023-03-03T09:28:31;100382.16;;;0.76;100.00
24858;BME280;12935;50.782;6.074;2023-03-03T09:31:00;100384.72;;;0.59;100.00
24858;BME280;12935;50.782;6.074;2023-03-03T09:33:40;100383.63;;;0.60;100.00
24858;BME280;12935;50.782;6.074;2023-03-03T09:38:57;100376.56;;;0.73;100.00
24858;BME280;12935;50.782;6.074;2023-03-03T09:42:01;100382.78;;;1.04;100.00
24858;BME280;12935;50.782;6.074;2023-03-03T09:50:04;100379.31;;;1.83;100.00
24858;BME280;12935;50.782;6.074;2023-03-03T09:55:58;100378.06;;;1.89;100.00
24858;BME280;12935;50.782;6.074;2023-03-03T09:58:45;100380.75;;;2.06;100.00
24858;BME280;12935;50.782;6.074;2023-03-03T10:05:09;100387.00;;;2.32;100.00
24858;BME280;12935;50.782;6.074;2023-03-03T10:13:50;100394.59;;;2.30;100.00
24858;BME280;12935;50.782;6.074;2023-03-03T10:19:07;100395.00;;;1.81;100.00
24858;BME280;12935;50.782;6.074;2023-03-03T10:21:50;100398.84;;;1.97;100.00
24858;BME280;12935;50.782;6.074;2023-03-03T10:24:39;100392.53;;;2.19;100.00
24858;BME280;12935;50.782;6.074;2023-03-03T10:27:38;100397.31;;;2.30;100.00
24858;BME280;12935;50.782;6.074;2023-03-03T10:38:22;100395.50;;;2.00;100.00
24858;BME280;12935;50.782;6.074;2023-03-03T10:44:15;100404.09;;;2.02;100.00
24858;BME280;12935;50.782;6.074;2023-03-03T10:52:38;100413.34;;;1.70;100.00
24858;BME280;12935;50.782;6.074;2023-03-03T11:01:06;100396.47;;;2.21;100.00
24858;BME280;12935;50.782;6.074;2023-03-03T11:06:55;100399.00;;;2.09;100.00
24858;BME280;12935;50.782;6.074;2023-03-03T11:09:36;100398.84;;;2.05;100.00
24858;BME280;12935;50.782;6.074;2023-03-03T11:21:18;100401.38;;;2.10;100.00
24858;BME280;12935;50.782;6.074;2023-03-03T11:23:57;100401.69;;;2.09;100.00
24858;BME280;12935;50.782;6.074;2023-03-03T11:31:55;100404.75;;;2.76;100.00
24858;BME280;12935;50.782;6.074;2023-03-03T11:34:45;100406.78;;;2.88;100.00
24858;BME280;12935;50.782;6.074;2023-03-03T11:37:25;100400.31;;;2.55;100.00
24858;BME280;12935;50.782;6.074;2023-03-03T11:39:56;100406.03;;;2.79;100.00
24858;BME280;12935;50.782;6.074;2023-03-03T11:45:19;100406.56;;;3.19;100.00
24858;BME280;12935;50.782;6.074;2023-03-03T11:47:58;100396.41;;;3.25;100.00
24858;BME280;12935;50.782;6.074;2023-03-03T11:50:35;100389.50;;;3.44;100.00
24858;BME280;12935;50.782;6.074;2023-03-03T11:53:31;100393.44;;;3.47;100.00
24858;BME280;12935;50.782;6.074;2023-03-03T11:56:09;100395.16;;;3.60;100.00
24858;BME280;12935;50.782;6.074;2023-03-03T11:58:50;100395.28;;;3.72;100.00
24858;BME280;12935;50.782;6.074;2023-03-03T12:01:35;100390.97;;;3.33;100.00
24858;BME280;12935;50.782;6.074;2023-03-03T12:04:13;100390.41;;;3.10;100.00
24858;BME280;12935;50.782;6.074;2023-03-03T12:17:42;100381.28;;;2.60;100.00
24858;BME280;12935;50.782;6.074;2023-03-03T12:20:23;100386.75;;;3.06;100.00
24858;BME280;12935;50.782;6.074;2023-03-03T12:23:45;100379.41;;;3.15;100.00
24858;BME280;12935;50.782;6.074;2023-03-03T12:34:43;100366.66;;;2.78;100.00
24858;BME280;12935;50.782;6.074;2023-03-03T12:37:24;100368.69;;;2.90;100.00
24858;BME280;12935;50.782;6.074;2023-03-03T12:42:54;100378.78;;;3.18;100.00
24858;BME280;12935;50.782;6.074;2023-03-03T12:48:15;100370.88;;;3.13;100.00
24858;BME280;12935;50.782;6.074;2023-03-03T13:03:52;100354.56;;;3.39;100.00
24858;BME280;12935;50.782;6.074;2023-03-03T13:06:29;100349.59;;;3.79;100.00
24858;BME280;12935;50.782;6.074;2023-03-03T13:09:07;100350.13;;;3.94;100.00
24858;BME280;12935;50.782;6.074;2023-03-03T13:14:42;100354.41;;;3.36;100.00
24858;BME280;12935;50.782;6.074;2023-03-03T13:17:24;100351.19;;;3.04;100.00
24858;BME280;12935;50.782;6.074;2023-03-03T13:19:58;100354.00;;;3.16;100.00
24858;BME280;12935;50.782;6.074;2023-03-03T13:28:05;100352.19;;;3.38;100.00
24858;BME280;12935;50.782;6.074;2023-03-03T13:30:37;100351.38;;;3.46;100.00
24858;BME280;12935;50.782;6.074;2023-03-03T13:33:08;100362.47;;;3.06;100.00
24858;BME280;12935;50.782;6.074;2023-03-03T13:35:44;100364.13;;;2.81;100.00
24858;BME280;12935;50.782;6.074;2023-03-03T13:38:19;100361.50;;;3.11;100.00
24858;BME280;12935;50.782;6.074;2023-03-03T13:40:56;100363.38;;;3.19;100.00
24858;BME280;12935;50.782;6.074;2023-03-03T13:44:17;100361.75;;;2.80;100.00
24858;BME280;12935;50.782;6.074;2023-03-03T13:46:25;100369.19;;;2.83;100.00
24858;BME280;12935;50.782;6.074;2023-03-03T14:05:11;100348.00;;;3.02;100.00
24858;BME280;12935;50.782;6.074;2023-03-03T14:10:57;100349.16;;;2.84;100.00
24858;BME280;12935;50.782;6.074;2023-03-03T14:16:04;100333.66;;;3.28;100.00
24858;BME280;12935;50.782;6.074;2023-03-03T14:18:42;100348.66;;;3.75;100.00
24858;BME280;12935;50.782;6.074;2023-03-03T14:21:28;100339.31;;;3.43;100.00
24858;BME280;12935;50.782;6.074;2023-03-03T14:24:10;100346.88;;;3.12;100.00
24858;BME280;12935;50.782;6.074;2023-03-03T14:26:53;100341.31;;;3.46;100.00
24858;BME280;12935;50.782;6.074;2023-03-03T14:31:56;100345.53;;;3.65;100.00
24858;BME280;12935;50.782;6.074;2023-03-03T14:36:57;100345.09;;;3.16;100.00
24858;BME280;12935;50.782;6.074;2023-03-03T14:39:36;100345.03;;;2.95;100.00
24858;BME280;12935;50.782;6.074;2023-03-03T14:44:59;100334.22;;;3.71;100.00
24858;BME280;12935;50.782;6.074;2023-03-03T14:47:27;100333.31;;;3.88;100.00
24858;BME280;12935;50.782;6.074;2023-03-03T14:49:54;100340.84;;;3.53;100.00
24858;BME280;12935;50.782;6.074;2023-03-03T14:52:32;100345.03;;;3.33;100.00
24858;BME280;12935;50.782;6.074;2023-03-03T14:55:00;100348.94;;;3.53;100.00
24858;BME280;12935;50.782;6.074;2023-03-03T15:02:42;100345.97;;;3.75;100.00
24858;BME280;12935;50.782;6.074;2023-03-03T15:07:44;100338.00;;;4.00;100.00
24858;BME280;12935;50.782;6.074;2023-03-03T15:10:11;100335.66;;;4.19;100.00
24858;BME280;12935;50.782;6.074;2023-03-03T15:12:40;100330.16;;;4.28;100.00
24858;BME280;12935;50.782;6.074;2023-03-03T15:20:31;100325.16;;;4.17;100.00
24858;BME280;12935;50.782;6.074;2023-03-03T15:23:34;100310.94;;;3.79;100.00
24858;BME280;12935;50.782;6.074;2023-03-03T15:29:15;100318.03;;;3.33;100.00
24858;BME280;12935;50.782;6.074;2023-03-03T15:42:32;100310.25;;;3.91;100.00
24858;BME280;12935;50.782;6.074;2023-03-03T15:45:05;100311.56;;;4.05;100.00
24858;BME280;12935;50.782;6.074;2023-03-03T15:47:56;100309.97;;;4.25;100.00
24858;BME280;12935;50.782;6.074;2023-03-03T15:50:43;100309.84;;;4.21;100.00
24858;BME280;12935;50.782;6.074;2023-03-03T16:01:14;100310.63;;;3.80;100.00
24858;BME280;12935;50.782;6.074;2023-03-03T16:03:46;100306.72;;;3.69;100.00
24858;BME280;12935;50.782;6.074;2023-03-03T16:06:29;100311.09;;;3.53;100.00
24858;BME280;12935;50.782;6.074;2023-03-03T16:11:41;100319.63;;;3.34;100.00
24858;BME280;12935;50.782;6.074;2023-03-03T16:27:36;100325.03;;;3.93;100.00
24858;BME280;12935;50.782;6.074;2023-03-03T16:38:30;100325.59;;;3.99;100.00
24858;BME280;12935;50.782;6.074;2023-03-03T16:40:58;100317.69;;;3.94;100.00
24858;BME280;12935;50.782;6.074;2023-03-03T16:44:23;100318.34;;;3.91;100.00
24858;BME280;12935;50.782;6.074;2023-03-03T16:46:49;100328.56;;;3.85;100.00
24858;BME280;12935;50.782;6.074;2023-03-03T16:49:26;100328.50;;;3.73;100.00
24858;BME280;12935;50.782;6.074;2023-03-03T16:52:08;100321.09;;;3.61;100.00
24858;BME280;12935;50.782;6.074;2023-03-03T16:55:14;100331.94;;;3.52;100.00
24858;BME280;12935;50.782;6.074;2023-03-03T16:58:07;100335.81;;;3.34;100.00
24858;BME280;12935;50.782;6.074;2023-03-03T17:00:41;100334.75;;;3.27;100.00
24858;BME280;12935;50.782;6.074;2023-03-03T17:03:27;100333.97;;;3.26;100.00